createdAt,value
2023-02-19T00:01:10.420Z,2.88
2023-02-19T00:03:38.127Z,2.67
2023-02-19T00:06:07.027Z,2.25
2023-02-19T00:08:34.839Z,2.65
2023-02-19T00:11:05.953Z,3.00
2023-02-19T00:13:36.956Z,2.92
2023-02-19T00:16:08.728Z,2.78
2023-02-19T00:18:35.914Z,2.90
2023-02-19T00:21:03.446Z,3.05
2023-02-19T00:23:30.260Z,3.30
2023-02-19T00:26:01.103Z,3.58
2023-02-19T00:28:36.777Z,3.20
2023-02-19T00:31:18.790Z,2.85
2023-02-19T00:33:46.924Z,3.30
2023-02-19T00:36:14.265Z,3.05
2023-02-19T00:38:42.868Z,3.38
2023-02-19T00:41:19.819Z,3.20
2023-02-19T00:43:55.235Z,3.28
2023-02-19T00:46:29.674Z,3.10
2023-02-19T00:48:57.881Z,2.85
2023-02-19T00:51:27.392Z,3.33
2023-02-19T00:53:54.662Z,4.28
2023-02-19T00:56:21.607Z,3.77
2023-02-19T00:58:48.583Z,3.13
2023-02-19T01:01:15.979Z,3.25
2023-02-19T01:03:42.593Z,3.90
2023-02-19T01:06:11.450Z,3.83
2023-02-19T01:08:38.271Z,3.58
2023-02-19T01:11:07.595Z,3.65
2023-02-19T01:13:34.939Z,3.85
2023-02-19T01:16:04.715Z,3.55
2023-02-19T01:18:32.089Z,4.53
2023-02-19T01:20:58.913Z,3.72
2023-02-19T01:23:25.777Z,4.45
2023-02-19T01:25:52.337Z,4.47
2023-02-19T01:30:45.416Z,4.28
2023-02-19T01:33:12.016Z,4.88
2023-02-19T01:38:07.447Z,4.75
2023-02-19T01:40:34.647Z,4.57
2023-02-19T01:43:01.267Z,4.70
2023-02-19T01:45:29.453Z,4.60
2023-02-19T01:48:04.139Z,4.40
2023-02-19T01:50:36.037Z,4.40
2023-02-19T01:53:06.260Z,4.57
2023-02-19T01:55:34.711Z,4.75
2023-02-19T01:58:02.198Z,4.07
2023-02-19T02:00:29.160Z,4.20
2023-02-19T02:02:58.092Z,4.00
2023-02-19T02:05:56.642Z,4.40
2023-02-19T02:08:43.873Z,4.22
2023-02-19T02:11:10.807Z,4.43
2023-02-19T02:13:39.114Z,3.72
2023-02-19T02:16:06.178Z,4.50
2023-02-19T02:21:31.083Z,4.57
2023-02-19T02:24:09.520Z,5.10
2023-02-19T02:26:46.504Z,5.07
2023-02-19T02:29:20.639Z,5.15
2023-02-19T02:31:54.069Z,4.90
2023-02-19T02:34:27.118Z,4.63
2023-02-19T02:36:56.669Z,4.97
2023-02-19T02:39:27.068Z,4.60
2023-02-19T02:42:17.912Z,6.03
2023-02-19T02:45:11.289Z,5.05
2023-02-19T02:47:49.914Z,6.57
2023-02-19T02:50:25.588Z,5.78
2023-02-19T02:53:18.249Z,6.60
2023-02-19T02:55:49.122Z,7.03
2023-02-19T02:58:17.490Z,6.32
2023-02-19T03:01:09.002Z,6.90
2023-02-19T03:03:39.350Z,5.93
2023-02-19T03:06:08.323Z,6.43
2023-02-19T03:08:40.481Z,6.28
2023-02-19T03:11:30.742Z,6.18
2023-02-19T03:14:27.006Z,6.05
2023-02-19T03:17:19.166Z,6.03
2023-02-19T03:19:52.827Z,5.25
2023-02-19T03:22:42.230Z,6.43
2023-02-19T03:25:53.767Z,5.63
2023-02-19T03:28:53.576Z,6.22
2023-02-19T03:31:25.118Z,5.22
2023-02-19T03:33:57.400Z,6.70
2023-02-19T03:36:28.210Z,5.35
2023-02-19T03:39:06.728Z,5.65
2023-02-19T03:41:50.564Z,5.15
2023-02-19T03:44:27.574Z,5.25
2023-02-19T03:47:05.248Z,4.63
2023-02-19T03:49:37.569Z,4.63
2023-02-19T03:52:16.030Z,4.50
2023-02-19T03:55:06.515Z,3.65
2023-02-19T03:57:52.291Z,3.97
2023-02-19T04:00:23.217Z,3.95
2023-02-19T04:03:01.184Z,4.07
2023-02-19T04:05:35.880Z,3.15
2023-02-19T04:08:14.113Z,3.15
2023-02-19T04:10:46.946Z,3.42
2023-02-19T04:13:20.619Z,3.13
2023-02-19T04:15:50.364Z,2.90
2023-02-19T04:18:25.646Z,2.72
2023-02-19T04:20:52.988Z,3.08
2023-02-19T04:23:23.179Z,3.42
2023-02-19T04:25:56.181Z,3.00
2023-02-19T04:28:22.802Z,3.20
2023-02-19T04:30:49.427Z,3.20
2023-02-19T04:33:16.077Z,3.22
2023-02-19T04:35:42.682Z,3.30
2023-02-19T04:38:09.213Z,3.40
2023-02-19T04:43:02.266Z,3.67
2023-02-19T04:45:28.785Z,3.08
2023-02-19T04:50:23.178Z,2.90
2023-02-19T04:52:49.966Z,3.03
2023-02-19T04:55:16.743Z,3.00
2023-02-19T04:57:43.301Z,2.75
2023-02-19T05:00:10.505Z,2.92
2023-02-19T05:02:37.024Z,2.47
2023-02-19T05:07:30.698Z,2.20
2023-02-19T05:12:23.753Z,2.28
2023-02-19T05:17:16.776Z,2.05
2023-02-19T05:22:09.794Z,2.08
2023-02-19T05:27:02.740Z,2.00
2023-02-19T05:31:57.602Z,1.70
2023-02-19T05:34:24.213Z,1.90
2023-02-19T05:36:50.703Z,1.83
2023-02-19T05:41:43.744Z,1.65
2023-02-19T05:44:11.404Z,1.52
2023-02-19T05:46:37.987Z,1.67
2023-02-19T05:49:04.645Z,1.50
2023-02-19T05:51:31.203Z,1.77
2023-02-19T05:53:58.102Z,1.40
2023-02-19T05:56:34.669Z,1.40
2023-02-19T05:59:03.983Z,1.52
2023-02-19T06:01:30.959Z,1.40
2023-02-19T06:03:58.136Z,1.50
2023-02-19T06:06:25.791Z,1.58
2023-02-19T06:08:53.170Z,1.40
2023-02-19T06:11:19.973Z,1.52
2023-02-19T06:13:46.943Z,1.80
2023-02-19T06:16:13.628Z,2.00
2023-02-19T06:18:42.960Z,1.70
2023-02-19T06:21:11.521Z,2.10
2023-02-19T06:23:39.365Z,1.58
2023-02-19T06:26:23.372Z,1.63
2023-02-19T06:28:51.570Z,1.73
2023-02-19T06:31:19.565Z,1.48
2023-02-19T06:33:46.815Z,1.83
2023-02-19T06:36:16.036Z,1.63
2023-02-19T06:38:43.057Z,1.75
2023-02-19T06:41:11.095Z,1.63
2023-02-19T06:43:37.996Z,1.80
2023-02-19T06:46:06.490Z,1.90
2023-02-19T06:48:33.864Z,1.77
2023-02-19T06:51:00.541Z,1.67
2023-02-19T06:53:27.533Z,1.92
2023-02-19T06:56:05.925Z,2.15
2023-02-19T06:58:34.114Z,2.00
2023-02-19T07:01:00.646Z,1.85
2023-02-19T07:05:53.877Z,1.92
2023-02-19T07:08:20.668Z,2.40
2023-02-19T07:10:55.637Z,1.90
2023-02-19T07:13:22.876Z,2.25
2023-02-19T07:15:51.929Z,1.90
2023-02-19T07:18:18.629Z,2.03
2023-02-19T07:23:11.563Z,2.38
2023-02-19T07:28:06.089Z,6.22
2023-02-19T07:30:32.653Z,2.40
2023-02-19T07:32:59.302Z,2.17
2023-02-19T07:35:25.952Z,2.22
2023-02-19T07:37:52.440Z,1.90
2023-02-19T07:42:45.330Z,2.28
2023-02-19T07:47:38.160Z,2.30
2023-02-19T07:52:31.310Z,2.30
2023-02-19T07:54:57.743Z,1.98
2023-02-19T07:57:24.159Z,2.10
2023-02-19T07:59:50.610Z,2.20
2023-02-19T08:05:02.994Z,2.20
2023-02-19T08:07:34.752Z,2.35
2023-02-19T08:10:20.487Z,1.90
2023-02-19T08:13:16.729Z,1.80
2023-02-19T08:15:43.508Z,1.85
2023-02-19T08:18:10.567Z,2.05
2023-02-19T08:20:37.383Z,1.90
2023-02-19T08:23:04.182Z,1.98
2023-02-19T08:25:30.665Z,1.90
2023-02-19T08:30:24.065Z,1.90
2023-02-19T08:32:50.600Z,1.80
2023-02-19T08:37:43.525Z,2.20
2023-02-19T08:42:36.905Z,2.70
2023-02-19T08:47:30.010Z,2.40
2023-02-19T08:52:22.864Z,2.13
2023-02-19T08:57:15.849Z,2.20
2023-02-19T09:02:09.576Z,2.15
2023-02-19T09:04:37.727Z,2.50
2023-02-19T09:07:07.717Z,2.20
2023-02-19T09:09:36.332Z,2.20
2023-02-19T09:12:05.227Z,2.30
2023-02-19T09:14:33.605Z,2.60
2023-02-19T09:17:01.294Z,2.00
2023-02-19T09:19:28.359Z,2.45
2023-02-19T09:21:55.515Z,2.83
2023-02-19T09:24:22.493Z,2.55
2023-02-19T09:26:50.389Z,2.63
2023-02-19T09:29:17.229Z,2.95
2023-02-19T09:31:43.908Z,2.10
2023-02-19T09:34:11.744Z,2.47
2023-02-19T09:36:39.599Z,3.08
2023-02-19T09:39:08.344Z,2.88
2023-02-19T09:41:46.389Z,2.85
2023-02-19T09:44:20.856Z,3.13
2023-02-19T09:46:49.797Z,3.17
2023-02-19T09:49:36.040Z,2.70
2023-02-19T09:52:07.694Z,3.17
2023-02-19T09:54:37.201Z,2.40
2023-02-19T09:57:04.830Z,2.83
2023-02-19T09:59:44.727Z,3.20
2023-02-19T10:02:15.773Z,2.30
2023-02-19T10:04:43.971Z,2.78
2023-02-19T10:07:13.366Z,2.75
2023-02-19T10:09:40.346Z,2.50
2023-02-19T10:12:16.034Z,2.90
2023-02-19T10:14:47.488Z,2.80
2023-02-19T10:17:23.513Z,2.80
2023-02-19T10:19:51.387Z,2.67
2023-02-19T10:22:19.220Z,3.05
2023-02-19T10:24:49.794Z,3.30
2023-02-19T10:27:16.236Z,2.85
2023-02-19T10:32:23.951Z,2.92
2023-02-19T10:35:14.659Z,4.75
2023-02-19T10:37:49.878Z,2.90
2023-02-19T10:40:23.197Z,2.80
2023-02-19T10:42:53.682Z,2.95
2023-02-19T10:45:24.213Z,3.38
2023-02-19T10:47:51.443Z,2.95
2023-02-19T10:50:30.734Z,3.58
2023-02-19T10:52:58.941Z,4.32
2023-02-19T10:55:30.660Z,4.82
2023-02-19T10:57:58.002Z,3.35
2023-02-19T11:00:28.844Z,3.30
2023-02-19T11:03:16.953Z,2.88
2023-02-19T11:05:59.971Z,3.15
2023-02-19T11:08:27.337Z,3.88
2023-02-19T11:10:54.284Z,2.75
2023-02-19T11:13:30.940Z,3.38
2023-02-19T11:33:27.825Z,3.42
2023-02-19T11:36:18.292Z,3.13
2023-02-19T11:38:44.856Z,3.22
2023-02-19T11:44:04.095Z,2.78
2023-02-19T11:47:13.624Z,3.47
2023-02-19T11:49:52.500Z,3.42
2023-02-19T11:52:45.007Z,2.72
2023-02-19T11:55:25.424Z,3.38
2023-02-19T11:58:12.179Z,3.00
2023-02-19T12:00:51.629Z,2.65
2023-02-19T12:03:49.272Z,2.83
2023-02-19T12:06:28.951Z,2.60
2023-02-19T12:09:27.959Z,3.50
2023-02-19T12:12:24.550Z,2.67
2023-02-19T12:15:13.224Z,2.60
2023-02-19T12:17:59.762Z,2.95
2023-02-19T12:20:43.651Z,2.60
2023-02-19T12:23:36.509Z,2.85
2023-02-19T12:26:23.942Z,2.90
2023-02-19T12:29:27.861Z,2.80
2023-02-19T12:32:13.158Z,2.45
2023-02-19T12:35:02.007Z,2.50
2023-02-19T12:37:58.923Z,2.90
2023-02-19T12:40:37.291Z,2.95
2023-02-19T12:43:11.007Z,3.33
2023-02-19T12:45:47.394Z,2.70
2023-02-19T12:48:16.856Z,3.22
2023-02-19T12:50:47.543Z,3.28
2023-02-19T12:53:30.031Z,2.83
2023-02-19T12:55:59.606Z,2.95
2023-02-19T12:58:31.265Z,2.72
2023-02-19T13:00:59.692Z,3.10
2023-02-19T13:03:34.178Z,3.25
2023-02-19T13:06:16.700Z,2.58
2023-02-19T13:09:06.447Z,3.35
2023-02-19T13:11:39.771Z,3.17
2023-02-19T13:14:17.827Z,2.83
2023-02-19T13:16:50.870Z,2.63
2023-02-19T13:19:17.412Z,3.50
2023-02-19T13:24:36.300Z,2.78
2023-02-19T13:27:29.148Z,3.95
2023-02-19T13:30:07.574Z,3.00
2023-02-19T13:33:05.320Z,3.85
2023-02-19T13:36:06.004Z,3.75
2023-02-19T13:38:38.629Z,3.38
2023-02-19T13:41:05.598Z,3.50
2023-02-19T13:43:38.875Z,3.90
2023-02-19T13:46:12.327Z,3.83
2023-02-19T13:48:41.179Z,3.80
2023-02-19T13:51:16.892Z,4.40
2023-02-19T13:53:44.681Z,3.83
2023-02-19T13:56:37.777Z,5.05
2023-02-19T13:59:22.635Z,4.05
2023-02-19T14:01:58.245Z,5.30
2023-02-19T14:04:31.660Z,3.95
2023-02-19T14:07:04.072Z,3.92
2023-02-19T14:09:45.552Z,3.53
2023-02-19T14:12:16.133Z,3.65
2023-02-19T14:14:46.861Z,3.58
2023-02-19T14:17:31.850Z,4.28
2023-02-19T14:19:59.583Z,3.33
2023-02-19T14:22:47.799Z,3.70
2023-02-19T14:25:40.647Z,3.35
2023-02-19T14:28:33.491Z,3.45
2023-02-19T14:31:09.057Z,4.25
2023-02-19T14:33:40.133Z,5.78
2023-02-19T14:36:14.589Z,7.13
2023-02-19T14:38:56.621Z,4.22
2023-02-19T14:41:24.709Z,6.43
2023-02-19T14:43:54.144Z,11.65
2023-02-19T14:46:29.711Z,5.65
2023-02-19T14:49:02.607Z,4.40
2023-02-19T14:51:36.150Z,4.75
2023-02-19T14:54:14.076Z,5.10
2023-02-19T14:56:48.223Z,4.03
2023-02-19T14:59:23.909Z,6.63
2023-02-19T15:01:59.926Z,18.08
2023-02-19T15:04:31.247Z,9.80
2023-02-19T15:07:02.354Z,4.57
2023-02-19T15:09:33.162Z,8.40
2023-02-19T15:12:00.535Z,5.53
2023-02-19T15:14:30.661Z,4.13
2023-02-19T15:17:01.080Z,3.95
2023-02-19T15:19:29.340Z,4.05
2023-02-19T15:21:55.936Z,3.78
2023-02-19T15:24:22.696Z,3.63
2023-02-19T15:26:54.240Z,3.78
2023-02-19T15:29:25.330Z,3.28
2023-02-19T15:31:55.067Z,3.58
2023-02-19T15:34:24.578Z,3.05
2023-02-19T15:36:55.334Z,2.97
2023-02-19T15:39:30.566Z,4.00
2023-02-19T15:42:00.606Z,3.63
2023-02-19T15:45:03.927Z,2.78
2023-02-19T15:47:39.988Z,3.40
2023-02-19T15:50:15.104Z,3.70
2023-02-19T15:52:48.770Z,3.05
2023-02-19T15:55:36.616Z,3.38
2023-02-19T15:58:14.148Z,3.20
2023-02-19T16:00:54.151Z,3.13
2023-02-19T16:03:23.513Z,2.95
2023-02-19T16:06:10.630Z,3.53
2023-02-19T16:08:39.558Z,3.33
2023-02-19T16:11:27.548Z,3.00
2023-02-19T16:14:33.506Z,3.35
2023-02-19T16:17:12.009Z,3.80
2023-02-19T16:20:04.715Z,3.22
2023-02-19T16:22:40.589Z,3.33
2023-02-19T16:25:07.881Z,2.70
2023-02-19T16:27:38.538Z,3.20
2023-02-19T16:30:17.490Z,3.00
2023-02-19T16:32:45.312Z,3.30
2023-02-19T16:35:35.698Z,4.35
2023-02-19T16:38:02.937Z,3.70
2023-02-19T16:40:47.824Z,3.95
2023-02-19T16:43:14.350Z,3.47
2023-02-19T16:48:08.930Z,4.00
2023-02-19T16:50:35.420Z,4.07
2023-02-19T16:55:32.185Z,11.75
2023-02-19T16:57:58.684Z,14.18
2023-02-19T17:02:57.106Z,9.32
2023-02-19T17:05:27.317Z,5.43
2023-02-19T17:07:53.775Z,4.90
2023-02-19T17:12:53.533Z,4.55
2023-02-19T17:15:20.376Z,4.45
2023-02-19T17:17:47.083Z,4.15
2023-02-19T17:20:16.551Z,4.82
2023-02-19T17:22:43.733Z,5.40
2023-02-19T17:25:10.529Z,4.82
2023-02-19T17:27:37.047Z,16.30
2023-02-19T17:32:30.383Z,10.27
2023-02-19T17:34:56.919Z,13.70
2023-02-19T17:39:49.740Z,5.15
2023-02-19T17:44:42.804Z,4.43
2023-02-19T17:47:09.294Z,4.95
2023-02-19T17:52:02.818Z,6.45
2023-02-19T17:56:55.719Z,13.10
2023-02-19T18:01:48.552Z,9.45
2023-02-19T18:06:42.885Z,5.13
2023-02-19T18:09:10.735Z,5.40
2023-02-19T18:11:37.496Z,6.45
2023-02-19T18:14:04.000Z,4.68
2023-02-19T18:18:58.352Z,5.53
2023-02-19T18:21:25.086Z,5.60
2023-02-19T18:23:51.539Z,5.53
2023-02-19T18:28:46.169Z,5.07
2023-02-19T18:33:39.803Z,21.25
2023-02-19T18:38:36.477Z,4.55
2023-02-19T18:43:29.303Z,8.85
2023-02-19T18:48:22.186Z,8.55
2023-02-19T18:53:15.038Z,7.38
2023-02-19T18:58:08.222Z,8.07
2023-02-19T19:00:34.777Z,6.32
2023-02-19T19:05:29.141Z,5.22
2023-02-19T19:07:59.041Z,6.10
2023-02-19T19:10:26.301Z,7.28
2023-02-19T19:12:54.078Z,6.10
2023-02-19T19:15:20.955Z,6.90
2023-02-19T19:17:48.278Z,6.18
2023-02-19T19:20:17.744Z,10.50
2023-02-19T19:22:44.334Z,9.77
2023-02-19T19:25:10.822Z,6.43
2023-02-19T19:30:04.802Z,9.02
2023-02-19T19:32:31.280Z,8.00
2023-02-19T19:37:24.989Z,13.18
2023-02-19T19:39:52.616Z,13.00
2023-02-19T19:44:45.532Z,8.05
2023-02-19T19:49:38.683Z,5.15
2023-02-19T19:52:05.320Z,3.95
2023-02-19T19:54:31.821Z,6.60
2023-02-19T19:59:24.834Z,4.28
2023-02-19T20:02:01.713Z,4.30
2023-02-19T20:06:54.885Z,4.70
2023-02-19T20:09:25.409Z,4.80
2023-02-19T20:11:53.753Z,5.15
2023-02-19T20:14:22.489Z,5.70
2023-02-19T20:16:49.827Z,5.50
2023-02-19T20:19:17.835Z,4.43
2023-02-19T20:21:49.562Z,4.70
2023-02-19T20:24:17.983Z,4.88
2023-02-19T20:26:44.972Z,5.47
2023-02-19T20:29:11.850Z,5.05
2023-02-19T20:31:38.966Z,4.97
2023-02-19T20:34:05.690Z,5.43
2023-02-19T20:36:32.784Z,4.78
2023-02-19T20:38:59.267Z,4.63
2023-02-19T20:43:52.264Z,4.22
2023-02-19T20:48:45.208Z,6.00
2023-02-19T20:53:39.330Z,5.00
2023-02-19T20:56:06.624Z,5.68
2023-02-19T20:58:33.670Z,10.40
2023-02-19T21:01:00.149Z,5.63
2023-02-19T21:05:53.075Z,4.78
2023-02-19T21:10:46.365Z,4.93
2023-02-19T21:13:13.353Z,5.93
2023-02-19T21:15:39.866Z,4.45
2023-02-19T21:20:33.043Z,5.38
2023-02-19T21:25:26.035Z,6.25
2023-02-19T21:30:19.320Z,4.85
2023-02-19T21:32:45.791Z,5.65
2023-02-19T21:37:42.102Z,4.55
2023-02-19T21:40:09.457Z,4.30
2023-02-19T21:42:35.933Z,4.22
2023-02-19T21:49:56.499Z,4.15
2023-02-19T21:54:49.883Z,4.95
2023-02-19T21:59:42.987Z,4.60
2023-02-19T22:04:36.049Z,3.72
2023-02-19T22:09:28.946Z,3.90
2023-02-19T22:11:55.466Z,3.95
2023-02-19T22:16:48.496Z,4.53
2023-02-19T22:19:15.115Z,5.13
2023-02-19T22:21:43.956Z,5.22
2023-02-19T22:24:18.952Z,5.10
2023-02-19T22:26:45.950Z,6.18
2023-02-19T22:29:14.775Z,4.75
2023-02-19T22:31:41.422Z,5.03
2023-02-19T22:34:08.076Z,4.90
2023-02-19T22:36:37.214Z,4.65
2023-02-19T22:39:05.806Z,5.35
2023-02-19T22:41:32.625Z,5.03
2023-02-19T22:43:59.925Z,5.38
2023-02-19T22:46:29.737Z,5.63
2023-02-19T22:48:57.288Z,5.47
2023-02-19T22:51:24.683Z,6.28
2023-02-19T22:53:53.729Z,5.47
2023-02-19T22:56:22.494Z,5.95
2023-02-19T22:58:49.122Z,5.30
2023-02-19T23:17:29.668Z,7.85
2023-02-19T23:19:56.320Z,7.40
2023-02-19T23:22:22.827Z,6.65
2023-02-19T23:27:15.905Z,6.60
2023-02-19T23:29:43.257Z,7.57
2023-02-19T23:32:10.652Z,7.45
2023-02-19T23:34:37.191Z,7.43
2023-02-19T23:39:30.188Z,6.82
2023-02-19T23:41:57.887Z,7.70
2023-02-19T23:44:25.244Z,6.57
2023-02-19T23:46:52.537Z,7.35
2023-02-19T23:49:19.983Z,8.05
2023-02-19T23:51:46.543Z,11.40
2023-02-19T23:54:14.228Z,7.22
2023-02-19T23:56:41.184Z,7.80
2023-02-19T23:59:07.796Z,7.78
